sensor_id;sensor_type;location;lat;lon;timestamp;pressure;altitude;pressure_sealevel;temperature;humidity
71149;BME280;59072;42.144;25.200;2023-03-26T00:01:14;99251.09;;;12.06;100.00
71149;BME280;59072;42.144;25.200;2023-03-26T00:03:41;99274.72;;;12.15;100.00
71149;BME280;59072;42.144;25.200;2023-03-26T00:06:14;99261.34;;;12.15;100.00
71149;BME280;59072;42.144;25.200;2023-03-26T00:08:42;99264.41;;;12.01;100.00
71149;BME280;59072;42.144;25.200;2023-03-26T00:11:11;99278.31;;;11.86;100.00
71149;BME280;59072;42.144;25.200;2023-03-26T00:13:37;99279.47;;;11.91;100.00
71149;BME280;59072;42.144;25.200;2023-03-26T00:16:03;99290.31;;;12.23;100.00
71149;BME280;59072;42.144;25.200;2023-03-26T00:18:29;99287.97;;;12.26;100.00
71149;BME280;59072;42.144;25.200;2023-03-26T00:20:57;99273.03;;;12.09;100.00
71149;BME280;59072;42.144;25.200;2023-03-26T00:23:23;99296.75;;;12.22;100.00
71149;BME280;59072;42.144;25.200;2023-03-26T00:25:49;99287.34;;;11.97;100.00
71149;BME280;59072;42.144;25.200;2023-03-26T00:28:16;99285.31;;;11.71;100.00
71149;BME280;59072;42.144;25.200;2023-03-26T00:30:41;99287.69;;;11.50;100.00
71149;BME280;59072;42.144;25.200;2023-03-26T00:33:07;99295.38;;;11.63;100.00
71149;BME280;59072;42.144;25.200;2023-03-26T00:35:36;99295.28;;;11.75;100.00
71149;BME280;59072;42.144;25.200;2023-03-26T00:38:02;99300.72;;;11.30;100.00
71149;BME280;59072;42.144;25.200;2023-03-26T00:40:28;99286.38;;;11.36;100.00
71149;BME280;59072;42.144;25.200;2023-03-26T00:42:54;99297.31;;;11.51;100.00
71149;BME280;59072;42.144;25.200;2023-03-26T00:45:20;99293.84;;;11.17;100.00
71149;BME280;59072;42.144;25.200;2023-03-26T00:47:46;99294.56;;;11.12;100.00
71149;BME280;59072;42.144;25.200;2023-03-26T00:50:11;99292.84;;;10.89;100.00
71149;BME280;59072;42.144;25.200;2023-03-26T00:52:43;99290.78;;;10.79;100.00
71149;BME280;59072;42.144;25.200;2023-03-26T00:55:10;99294.31;;;10.68;100.00
71149;BME280;59072;42.144;25.200;2023-03-26T00:57:36;99291.06;;;10.66;100.00
71149;BME280;59072;42.144;25.200;2023-03-26T01:00:05;99279.59;;;10.65;100.00
71149;BME280;59072;42.144;25.200;2023-03-26T01:02:40;99304.13;;;10.79;100.00
71149;BME280;59072;42.144;25.200;2023-03-26T01:08:11;99317.16;;;10.93;100.00
71149;BME280;59072;42.144;25.200;2023-03-26T01:10:43;99305.84;;;10.85;100.00
71149;BME280;59072;42.144;25.200;2023-03-26T01:13:17;99326.78;;;10.94;100.00
71149;BME280;59072;42.144;25.200;2023-03-26T01:15:43;99343.84;;;10.93;100.00
71149;BME280;59072;42.144;25.200;2023-03-26T01:18:20;99341.69;;;11.06;100.00
71149;BME280;59072;42.144;25.200;2023-03-26T01:20:48;99332.53;;;11.02;100.00
71149;BME280;59072;42.144;25.200;2023-03-26T01:23:20;99333.06;;;11.16;100.00
71149;BME280;59072;42.144;25.200;2023-03-26T01:25:54;99347.88;;;11.24;100.00
71149;BME280;59072;42.144;25.200;2023-03-26T01:28:26;99348.44;;;11.26;100.00
71149;BME280;59072;42.144;25.200;2023-03-26T01:31:13;99322.53;;;11.10;100.00
71149;BME280;59072;42.144;25.200;2023-03-26T01:33:57;99348.78;;;11.46;100.00
71149;BME280;59072;42.144;25.200;2023-03-26T01:38:58;99333.41;;;11.37;100.00
71149;BME280;59072;42.144;25.200;2023-03-26T01:41:32;99337.38;;;11.51;100.00
71149;BME280;59072;42.144;25.200;2023-03-26T01:46:29;99346.19;;;11.69;100.00
71149;BME280;59072;42.144;25.200;2023-03-26T01:49:02;99348.63;;;11.70;100.00
71149;BME280;59072;42.144;25.200;2023-03-26T01:51:30;99356.38;;;11.72;100.00
71149;BME280;59072;42.144;25.200;2023-03-26T01:53:55;99362.69;;;11.82;100.00
71149;BME280;59072;42.144;25.200;2023-03-26T01:56:25;99372.47;;;11.77;100.00
71149;BME280;59072;42.144;25.200;2023-03-26T01:59:07;99368.53;;;11.79;100.00
71149;BME280;59072;42.144;25.200;2023-03-26T02:02:12;99372.34;;;11.83;100.00
71149;BME280;59072;42.144;25.200;2023-03-26T02:04:53;99376.63;;;11.68;100.00
71149;BME280;59072;42.144;25.200;2023-03-26T02:09:50;99383.56;;;11.69;100.00
71149;BME280;59072;42.144;25.200;2023-03-26T02:12:18;99381.88;;;11.62;100.00
71149;BME280;59072;42.144;25.200;2023-03-26T02:14:45;99393.94;;;11.65;100.00
71149;BME280;59072;42.144;25.200;2023-03-26T02:17:10;99401.22;;;11.70;100.00
71149;BME280;59072;42.144;25.200;2023-03-26T02:19:37;99381.97;;;11.68;100.00
71149;BME280;59072;42.144;25.200;2023-03-26T02:22:09;99380.69;;;11.87;100.00
71149;BME280;59072;42.144;25.200;2023-03-26T02:24:38;99381.34;;;11.94;100.00
71149;BME280;59072;42.144;25.200;2023-03-26T02:27:04;99383.34;;;12.04;100.00
71149;BME280;59072;42.144;25.200;2023-03-26T02:29:34;99360.03;;;11.65;100.00
71149;BME280;59072;42.144;25.200;2023-03-26T02:32:05;99381.56;;;11.76;100.00
71149;BME280;59072;42.144;25.200;2023-03-26T02:34:32;99394.09;;;12.09;100.00
71149;BME280;59072;42.144;25.200;2023-03-26T02:36:58;99387.59;;;12.39;100.00
71149;BME280;59072;42.144;25.200;2023-03-26T02:39:24;99381.44;;;12.38;100.00
71149;BME280;59072;42.144;25.200;2023-03-26T02:41:50;99387.91;;;12.42;100.00
71149;BME280;59072;42.144;25.200;2023-03-26T02:44:16;99390.44;;;12.15;100.00
71149;BME280;59072;42.144;25.200;2023-03-26T02:46:41;99386.09;;;12.48;100.00
71149;BME280;59072;42.144;25.200;2023-03-26T02:49:07;99392.59;;;12.35;100.00
71149;BME280;59072;42.144;25.200;2023-03-26T02:51:32;99389.31;;;12.28;100.00
71149;BME280;59072;42.144;25.200;2023-03-26T02:54:02;99387.91;;;12.42;100.00
71149;BME280;59072;42.144;25.200;2023-03-26T02:56:28;99382.47;;;11.98;100.00
71149;BME280;59072;42.144;25.200;2023-03-26T02:58:53;99381.50;;;12.04;100.00
71149;BME280;59072;42.144;25.200;2023-03-26T03:01:19;99383.69;;;11.91;100.00
71149;BME280;59072;42.144;25.200;2023-03-26T03:03:45;99383.25;;;11.82;100.00
71149;BME280;59072;42.144;25.200;2023-03-26T03:06:15;99378.25;;;12.02;100.00
71149;BME280;59072;42.144;25.200;2023-03-26T03:08:44;99375.81;;;12.01;100.00
71149;BME280;59072;42.144;25.200;2023-03-26T03:11:19;99395.88;;;12.20;100.00
71149;BME280;59072;42.144;25.200;2023-03-26T03:13:51;99385.44;;;12.19;100.00
71149;BME280;59072;42.144;25.200;2023-03-26T03:16:17;99390.41;;;12.10;100.00
71149;BME280;59072;42.144;25.200;2023-03-26T03:18:42;99391.69;;;11.91;100.00
71149;BME280;59072;42.144;25.200;2023-03-26T03:21:08;99392.50;;;12.08;100.00
71149;BME280;59072;42.144;25.200;2023-03-26T03:23:33;99386.25;;;12.02;100.00
71149;BME280;59072;42.144;25.200;2023-03-26T03:26:01;99394.75;;;12.16;100.00
71149;BME280;59072;42.144;25.200;2023-03-26T03:28:27;99396.97;;;12.02;100.00
71149;BME280;59072;42.144;25.200;2023-03-26T03:30:52;99393.97;;;12.16;100.00
71149;BME280;59072;42.144;25.200;2023-03-26T03:33:20;99396.38;;;11.83;100.00
71149;BME280;59072;42.144;25.200;2023-03-26T03:35:47;99395.72;;;11.76;100.00
71149;BME280;59072;42.144;25.200;2023-03-26T03:38:14;99387.38;;;11.73;100.00
71149;BME280;59072;42.144;25.200;2023-03-26T03:40:40;99384.69;;;11.73;100.00
71149;BME280;59072;42.144;25.200;2023-03-26T03:43:05;99389.75;;;11.69;100.00
71149;BME280;59072;42.144;25.200;2023-03-26T03:45:31;99399.44;;;11.58;100.00
71149;BME280;59072;42.144;25.200;2023-03-26T03:47:57;99396.53;;;11.60;98.83
71149;BME280;59072;42.144;25.200;2023-03-26T03:50:22;99398.28;;;11.54;97.81
71149;BME280;59072;42.144;25.200;2023-03-26T03:52:47;99406.00;;;11.68;97.06
71149;BME280;59072;42.144;25.200;2023-03-26T03:55:13;99403.50;;;11.78;95.66
71149;BME280;59072;42.144;25.200;2023-03-26T03:57:39;99414.59;;;11.86;93.74
71149;BME280;59072;42.144;25.200;2023-03-26T04:00:05;99416.84;;;11.78;92.82
71149;BME280;59072;42.144;25.200;2023-03-26T04:02:36;99421.06;;;11.74;91.52
71149;BME280;59072;42.144;25.200;2023-03-26T04:05:02;99423.22;;;11.77;92.52
71149;BME280;59072;42.144;25.200;2023-03-26T04:07:29;99422.59;;;11.70;91.89
71149;BME280;59072;42.144;25.200;2023-03-26T04:09:56;99434.41;;;11.74;91.47
71149;BME280;59072;42.144;25.200;2023-03-26T04:12:27;99429.88;;;11.74;90.53
71149;BME280;59072;42.144;25.200;2023-03-26T04:14:53;99433.28;;;11.70;89.52
71149;BME280;59072;42.144;25.200;2023-03-26T04:17:19;99446.53;;;11.64;90.07
71149;BME280;59072;42.144;25.200;2023-03-26T04:19:48;99450.09;;;11.70;89.96
71149;BME280;59072;42.144;25.200;2023-03-26T04:22:15;99456.75;;;11.68;88.69
71149;BME280;59072;42.144;25.200;2023-03-26T04:24:42;99461.13;;;11.74;88.80
71149;BME280;59072;42.144;25.200;2023-03-26T04:27:12;99453.59;;;11.71;88.62
71149;BME280;59072;42.144;25.200;2023-03-26T04:29:41;99453.59;;;11.71;86.85
71149;BME280;59072;42.144;25.200;2023-03-26T04:32:18;99449.06;;;11.71;86.96
71149;BME280;59072;42.144;25.200;2023-03-26T04:34:46;99453.50;;;11.65;86.78
71149;BME280;59072;42.144;25.200;2023-03-26T04:37:19;99446.22;;;11.61;86.15
71149;BME280;59072;42.144;25.200;2023-03-26T04:39:46;99452.22;;;11.68;85.49
71149;BME280;59072;42.144;25.200;2023-03-26T04:42:12;99458.75;;;11.60;84.95
71149;BME280;59072;42.144;25.200;2023-03-26T04:44:38;99464.91;;;11.61;85.57
71149;BME280;59072;42.144;25.200;2023-03-26T04:47:06;99468.88;;;11.58;85.34
71149;BME280;59072;42.144;25.200;2023-03-26T04:49:31;99472.09;;;11.60;84.46
71149;BME280;59072;42.144;25.200;2023-03-26T04:51:57;99480.69;;;11.62;82.68
71149;BME280;59072;42.144;25.200;2023-03-26T04:54:23;99485.06;;;11.69;82.79
71149;BME280;59072;42.144;25.200;2023-03-26T04:56:58;99488.19;;;11.77;82.62
71149;BME280;59072;42.144;25.200;2023-03-26T04:59:27;99485.75;;;11.76;82.35
71149;BME280;59072;42.144;25.200;2023-03-26T05:02:00;99500.56;;;11.83;81.77
71149;BME280;59072;42.144;25.200;2023-03-26T05:04:27;99493.81;;;11.81;82.04
71149;BME280;59072;42.144;25.200;2023-03-26T05:06:55;99504.34;;;11.71;82.19
71149;BME280;59072;42.144;25.200;2023-03-26T05:09:22;99502.69;;;11.53;82.74
71149;BME280;59072;42.144;25.200;2023-03-26T05:11:47;99503.13;;;11.61;83.48
71149;BME280;59072;42.144;25.200;2023-03-26T05:14:15;99517.78;;;11.76;82.19
71149;BME280;59072;42.144;25.200;2023-03-26T05:16:40;99526.03;;;11.74;83.62
71149;BME280;59072;42.144;25.200;2023-03-26T05:19:06;99518.09;;;11.91;82.69
71149;BME280;59072;42.144;25.200;2023-03-26T05:21:33;99535.59;;;11.99;81.59
71149;BME280;59072;42.144;25.200;2023-03-26T05:23:58;99523.22;;;12.10;81.00
71149;BME280;59072;42.144;25.200;2023-03-26T05:26:24;99523.69;;;12.06;81.13
71149;BME280;59072;42.144;25.200;2023-03-26T05:28:50;99529.84;;;12.07;81.12
71149;BME280;59072;42.144;25.200;2023-03-26T05:31:19;99538.44;;;12.09;81.51
71149;BME280;59072;42.144;25.200;2023-03-26T05:33:48;99548.50;;;12.19;81.36
71149;BME280;59072;42.144;25.200;2023-03-26T05:36:14;99542.28;;;12.30;81.20
71149;BME280;59072;42.144;25.200;2023-03-26T05:38:41;99550.38;;;12.35;81.35
71149;BME280;59072;42.144;25.200;2023-03-26T05:41:11;99541.38;;;12.41;80.66
71149;BME280;59072;42.144;25.200;2023-03-26T05:43:36;99538.47;;;12.26;80.92
71149;BME280;59072;42.144;25.200;2023-03-26T05:46:02;99540.31;;;12.42;81.00
71149;BME280;59072;42.144;25.200;2023-03-26T05:48:28;99542.09;;;12.54;79.77
71149;BME280;59072;42.144;25.200;2023-03-26T05:50:55;99545.28;;;12.51;79.95
71149;BME280;59072;42.144;25.200;2023-03-26T05:53:22;99549.13;;;12.60;78.48
71149;BME280;59072;42.144;25.200;2023-03-26T05:55:48;99554.00;;;12.63;77.74
71149;BME280;59072;42.144;25.200;2023-03-26T05:58:23;99560.59;;;12.94;79.17
71149;BME280;59072;42.144;25.200;2023-03-26T06:00:55;99552.34;;;12.96;77.68
71149;BME280;59072;42.144;25.200;2023-03-26T06:03:21;99571.91;;;12.79;77.70
71149;BME280;59072;42.144;25.200;2023-03-26T06:05:47;99563.72;;;12.69;78.28
71149;BME280;59072;42.144;25.200;2023-03-26T06:08:12;99570.00;;;12.97;77.92
71149;BME280;59072;42.144;25.200;2023-03-26T06:10:38;99578.63;;;12.82;77.66
71149;BME280;59072;42.144;25.200;2023-03-26T06:13:04;99593.25;;;13.13;78.76
71149;BME280;59072;42.144;25.200;2023-03-26T06:15:29;99579.69;;;13.20;77.30
71149;BME280;59072;42.144;25.200;2023-03-26T06:17:54;99582.75;;;13.29;78.00
71149;BME280;59072;42.144;25.200;2023-03-26T06:20:20;99596.91;;;13.07;78.34
71149;BME280;59072;42.144;25.200;2023-03-26T06:22:45;99592.19;;;13.14;77.42
71149;BME280;59072;42.144;25.200;2023-03-26T06:25:11;99594.94;;;13.19;78.07
71149;BME280;59072;42.144;25.200;2023-03-26T06:27:36;99597.47;;;13.48;76.93
71149;BME280;59072;42.144;25.200;2023-03-26T06:30:02;99595.66;;;13.54;76.12
71149;BME280;59072;42.144;25.200;2023-03-26T06:32:27;99588.00;;;13.62;76.74
71149;BME280;59072;42.144;25.200;2023-03-26T06:34:53;99587.09;;;13.79;76.26
71149;BME280;59072;42.144;25.200;2023-03-26T06:37:18;99590.44;;;13.91;76.03
71149;BME280;59072;42.144;25.200;2023-03-26T06:39:43;99600.88;;;13.88;76.26
71149;BME280;59072;42.144;25.200;2023-03-26T06:42:10;99601.63;;;13.83;75.35
71149;BME280;59072;42.144;25.200;2023-03-26T06:44:35;99606.38;;;13.76;74.70
71149;BME280;59072;42.144;25.200;2023-03-26T06:47:01;99604.16;;;13.95;74.25
71149;BME280;59072;42.144;25.200;2023-03-26T06:49:26;99603.47;;;14.04;73.85
71149;BME280;59072;42.144;25.200;2023-03-26T06:51:51;99616.13;;;14.41;71.90
71149;BME280;59072;42.144;25.200;2023-03-26T06:54:17;99616.53;;;14.28;69.42
71149;BME280;59072;42.144;25.200;2023-03-26T06:56:43;99617.66;;;14.59;71.56
71149;BME280;59072;42.144;25.200;2023-03-26T06:59:09;99626.72;;;14.85;67.38
71149;BME280;59072;42.144;25.200;2023-03-26T07:01:34;99622.22;;;14.96;67.99
71149;BME280;59072;42.144;25.200;2023-03-26T07:04:00;99619.06;;;15.04;66.61
71149;BME280;59072;42.144;25.200;2023-03-26T07:06:25;99628.16;;;15.03;68.49
71149;BME280;59072;42.144;25.200;2023-03-26T07:08:50;99639.28;;;15.17;65.13
71149;BME280;59072;42.144;25.200;2023-03-26T07:11:16;99637.66;;;15.16;65.24
71149;BME280;59072;42.144;25.200;2023-03-26T07:13:44;99645.19;;;15.14;60.71
71149;BME280;59072;42.144;25.200;2023-03-26T07:16:11;99650.00;;;15.17;61.98
71149;BME280;59072;42.144;25.200;2023-03-26T07:18:37;99653.56;;;14.85;62.40
71149;BME280;59072;42.144;25.200;2023-03-26T07:21:03;99645.78;;;15.26;64.63
71149;BME280;59072;42.144;25.200;2023-03-26T07:23:29;99651.78;;;15.44;61.15
71149;BME280;59072;42.144;25.200;2023-03-26T07:25:55;99651.88;;;15.64;60.15
71149;BME280;59072;42.144;25.200;2023-03-26T07:29:14;99644.81;;;15.48;60.21
71149;BME280;59072;42.144;25.200;2023-03-26T07:45:47;99632.75;;;16.60;51.83
71149;BME280;59072;42.144;25.200;2023-03-26T07:48:22;99606.63;;;16.71;52.56
71149;BME280;59072;42.144;25.200;2023-03-26T07:50:51;99626.81;;;16.68;49.05
71149;BME280;59072;42.144;25.200;2023-03-26T07:53:17;99627.38;;;16.60;48.96
71149;BME280;59072;42.144;25.200;2023-03-26T07:58:52;99613.88;;;16.96;49.40
71149;BME280;59072;42.144;25.200;2023-03-26T08:04:59;99606.66;;;16.81;47.81
71149;BME280;59072;42.144;25.200;2023-03-26T08:10:14;99613.03;;;17.16;46.63
71149;BME280;59072;42.144;25.200;2023-03-26T08:12:58;99596.63;;;17.12;48.00
71149;BME280;59072;42.144;25.200;2023-03-26T08:15:36;99614.13;;;17.15;46.52
71149;BME280;59072;42.144;25.200;2023-03-26T08:20:47;99613.88;;;17.11;44.71
71149;BME280;59072;42.144;25.200;2023-03-26T08:23:31;99608.75;;;17.15;42.92
71149;BME280;59072;42.144;25.200;2023-03-26T08:31:08;99596.41;;;17.68;43.34
71149;BME280;59072;42.144;25.200;2023-03-26T08:33:35;99593.91;;;17.82;42.19
71149;BME280;59072;42.144;25.200;2023-03-26T08:36:00;99595.47;;;17.34;41.48
71149;BME280;59072;42.144;25.200;2023-03-26T08:38:26;99598.41;;;17.47;42.74
71149;BME280;59072;42.144;25.200;2023-03-26T08:49:00;99589.97;;;18.48;41.24
71149;BME280;59072;42.144;25.200;2023-03-26T09:05:49;99575.66;;;18.77;42.32
71149;BME280;59072;42.144;25.200;2023-03-26T09:11:13;99593.59;;;18.39;39.24
71149;BME280;59072;42.144;25.200;2023-03-26T09:28:03;99577.06;;;18.75;40.48
71149;BME280;59072;42.144;25.200;2023-03-26T09:30:41;99591.88;;;18.82;39.83
71149;BME280;59072;42.144;25.200;2023-03-26T09:35:53;99588.50;;;19.20;40.81
71149;BME280;59072;42.144;25.200;2023-03-26T09:38:32;99573.59;;;19.65;39.84
71149;BME280;59072;42.144;25.200;2023-03-26T09:41:14;99574.34;;;19.52;37.39
71149;BME280;59072;42.144;25.200;2023-03-26T09:49:23;99596.34;;;19.64;35.06
71149;BME280;59072;42.144;25.200;2023-03-26T10:00:00;99565.16;;;20.62;34.05
71149;BME280;59072;42.144;25.200;2023-03-26T10:05:26;99571.56;;;20.33;32.32
71149;BME280;59072;42.144;25.200;2023-03-26T10:08:36;99559.69;;;20.48;32.94
71149;BME280;59072;42.144;25.200;2023-03-26T10:16:14;99563.03;;;20.59;33.12
71149;BME280;59072;42.144;25.200;2023-03-26T10:21:37;99540.78;;;20.90;32.00
71149;BME280;59072;42.144;25.200;2023-03-26T10:24:10;99564.19;;;21.55;32.35
71149;BME280;59072;42.144;25.200;2023-03-26T10:26:53;99534.88;;;20.87;30.62
71149;BME280;59072;42.144;25.200;2023-03-26T10:32:08;99549.84;;;20.99;31.84
71149;BME280;59072;42.144;25.200;2023-03-26T10:46:23;99522.88;;;21.94;30.11
71149;BME280;59072;42.144;25.200;2023-03-26T11:08:14;99515.44;;;23.34;23.24
71149;BME280;59072;42.144;25.200;2023-03-26T11:10:50;99509.84;;;23.30;24.57
71149;BME280;59072;42.144;25.200;2023-03-26T11:13:34;99508.72;;;22.82;24.87
71149;BME280;59072;42.144;25.200;2023-03-26T11:16:21;99504.34;;;22.64;23.77
71149;BME280;59072;42.144;25.200;2023-03-26T11:19:15;99495.34;;;22.95;23.33
71149;BME280;59072;42.144;25.200;2023-03-26T11:32:56;99468.41;;;23.94;25.42
71149;BME280;59072;42.144;25.200;2023-03-26T11:35:33;99463.53;;;24.26;23.63
71149;BME280;59072;42.144;25.200;2023-03-26T11:38:07;99459.91;;;24.13;24.25
71149;BME280;59072;42.144;25.200;2023-03-26T11:40:39;99455.47;;;24.38;24.69
71149;BME280;59072;42.144;25.200;2023-03-26T11:43:11;99443.47;;;24.78;23.19
71149;BME280;59072;42.144;25.200;2023-03-26T11:45:41;99439.50;;;24.28;24.56
71149;BME280;59072;42.144;25.200;2023-03-26T11:48:24;99451.59;;;24.57;23.03
71149;BME280;59072;42.144;25.200;2023-03-26T11:50:57;99431.19;;;24.93;22.12
71149;BME280;59072;42.144;25.200;2023-03-26T11:53:31;99438.63;;;25.89;21.83
71149;BME280;59072;42.144;25.200;2023-03-26T11:59:17;99428.19;;;24.56;22.03
71149;BME280;59072;42.144;25.200;2023-03-26T12:07:19;99428.13;;;24.94;22.38
71149;BME280;59072;42.144;25.200;2023-03-26T12:09:52;99415.41;;;25.49;23.40
71149;BME280;59072;42.144;25.200;2023-03-26T12:12:18;99417.44;;;26.06;20.63
71149;BME280;59072;42.144;25.200;2023-03-26T12:14:45;99415.53;;;25.86;20.51
71149;BME280;59072;42.144;25.200;2023-03-26T12:17:13;99421.44;;;26.21;19.87
71149;BME280;59072;42.144;25.200;2023-03-26T12:19:40;99432.34;;;25.76;19.84
71149;BME280;59072;42.144;25.200;2023-03-26T12:27:48;99434.84;;;25.26;19.37
71149;BME280;59072;42.144;25.200;2023-03-26T12:30:35;99421.06;;;25.44;20.23
71149;BME280;59072;42.144;25.200;2023-03-26T12:33:06;99419.97;;;25.57;21.87
71149;BME280;59072;42.144;25.200;2023-03-26T12:35:39;99417.72;;;26.51;20.93
71149;BME280;59072;42.144;25.200;2023-03-26T12:41:09;99414.44;;;26.70;18.60
71149;BME280;59072;42.144;25.200;2023-03-26T12:43:48;99405.72;;;26.06;18.06
71149;BME280;59072;42.144;25.200;2023-03-26T12:46:32;99403.50;;;26.70;20.29
71149;BME280;59072;42.144;25.200;2023-03-26T12:49:04;99401.31;;;26.38;21.32
71149;BME280;59072;42.144;25.200;2023-03-26T13:00:16;99396.09;;;26.70;21.80
71149;BME280;59072;42.144;25.200;2023-03-26T13:06:09;99387.34;;;25.94;20.17
71149;BME280;59072;42.144;25.200;2023-03-26T13:17:48;99372.66;;;25.53;19.28
71149;BME280;59072;42.144;25.200;2023-03-26T13:20:11;99371.41;;;25.96;19.34
71149;BME280;59072;42.144;25.200;2023-03-26T13:35:48;99370.75;;;25.66;18.97
71149;BME280;59072;42.144;25.200;2023-03-26T13:38:38;99371.47;;;26.58;17.80
71149;BME280;59072;42.144;25.200;2023-03-26T13:41:39;99370.09;;;26.39;17.52
71149;BME280;59072;42.144;25.200;2023-03-26T13:56:51;99365.28;;;25.66;18.20
71149;BME280;59072;42.144;25.200;2023-03-26T13:59:37;99353.03;;;26.42;18.05
71149;BME280;59072;42.144;25.200;2023-03-26T14:02:09;99356.81;;;27.43;17.53
71149;BME280;59072;42.144;25.200;2023-03-26T14:04:50;99347.22;;;27.65;16.24
71149;BME280;59072;42.144;25.200;2023-03-26T14:07:28;99369.31;;;27.29;15.78
71149;BME280;59072;42.144;25.200;2023-03-26T14:10:10;99350.28;;;27.92;15.90
71149;BME280;59072;42.144;25.200;2023-03-26T14:12:55;99372.47;;;28.03;15.38
71149;BME280;59072;42.144;25.200;2023-03-26T14:34:02;99375.91;;;31.63;14.37
71149;BME280;59072;42.144;25.200;2023-03-26T14:39:45;99370.09;;;32.65;12.86
71149;BME280;59072;42.144;25.200;2023-03-26T14:42:45;99354.28;;;33.35;11.42
71149;BME280;59072;42.144;25.200;2023-03-26T14:45:37;99350.19;;;33.04;12.46
71149;BME280;59072;42.144;25.200;2023-03-26T14:54:19;99356.78;;;34.16;12.38
71149;BME280;59072;42.144;25.200;2023-03-26T14:57:22;99357.56;;;34.09;13.15
71149;BME280;59072;42.144;25.200;2023-03-26T15:08:37;99345.69;;;35.51;11.90
71149;BME280;59072;42.144;25.200;2023-03-26T15:39:48;99331.59;;;35.90;11.82
71149;BME280;59072;42.144;25.200;2023-03-26T16:01:35;99316.34;;;36.13;11.65
71149;BME280;59072;42.144;25.200;2023-03-26T16:07:04;99325.81;;;34.86;12.40
71149;BME280;59072;42.144;25.200;2023-03-26T16:17:17;99305.34;;;30.08;16.68
71149;BME280;59072;42.144;25.200;2023-03-26T16:19:53;99307.84;;;27.86;18.34
71149;BME280;59072;42.144;25.200;2023-03-26T16:27:42;99314.66;;;25.02;21.86
71149;BME280;59072;42.144;25.200;2023-03-26T16:30:26;99308.78;;;24.11;22.89
71149;BME280;59072;42.144;25.200;2023-03-26T16:32:55;99291.31;;;23.64;23.99
71149;BME280;59072;42.144;25.200;2023-03-26T16:35:38;99308.69;;;23.34;24.29
71149;BME280;59072;42.144;25.200;2023-03-26T16:38:23;99327.06;;;22.84;25.35
71149;BME280;59072;42.144;25.200;2023-03-26T16:41:15;99330.16;;;22.34;26.49
71149;BME280;59072;42.144;25.200;2023-03-26T16:43:47;99320.44;;;21.71;28.08
71149;BME280;59072;42.144;25.200;2023-03-26T16:46:28;99328.13;;;21.46;27.89
71149;BME280;59072;42.144;25.200;2023-03-26T16:52:34;99331.91;;;21.22;28.68
71149;BME280;59072;42.144;25.200;2023-03-26T16:57:52;99331.56;;;20.10;32.03
71149;BME280;59072;42.144;25.200;2023-03-26T17:00:37;99336.41;;;20.13;31.15
71149;BME280;59072;42.144;25.200;2023-03-26T17:09:01;99344.78;;;19.97;33.67
71149;BME280;59072;42.144;25.200;2023-03-26T17:11:41;99341.75;;;19.52;34.53
71149;BME280;59072;42.144;25.200;2023-03-26T17:22:57;99359.09;;;19.32;35.25
71149;BME280;59072;42.144;25.200;2023-03-26T17:31:21;99389.84;;;18.02;37.71
71149;BME280;59072;42.144;25.200;2023-03-26T17:33:50;99394.06;;;18.13;39.59
71149;BME280;59072;42.144;25.200;2023-03-26T17:36:28;99391.38;;;17.84;40.31
71149;BME280;59072;42.144;25.200;2023-03-26T17:44:42;99380.72;;;16.84;39.92
71149;BME280;59072;42.144;25.200;2023-03-26T17:47:31;99400.84;;;17.42;39.19
71149;BME280;59072;42.144;25.200;2023-03-26T17:50:14;99410.03;;;17.41;37.91
71149;BME280;59072;42.144;25.200;2023-03-26T17:53:00;99414.81;;;17.49;37.91
71149;BME280;59072;42.144;25.200;2023-03-26T17:55:37;99413.63;;;17.65;37.00
71149;BME280;59072;42.144;25.200;2023-03-26T17:58:13;99415.47;;;17.31;34.66
71149;BME280;59072;42.144;25.200;2023-03-26T18:00:43;99404.59;;;17.46;34.66
71149;BME280;59072;42.144;25.200;2023-03-26T18:03:29;99420.97;;;17.55;34.54
71149;BME280;59072;42.144;25.200;2023-03-26T18:06:06;99400.78;;;17.52;35.64
71149;BME280;59072;42.144;25.200;2023-03-26T18:14:56;99434.81;;;17.38;35.96
71149;BME280;59072;42.144;25.200;2023-03-26T18:16:58;99417.94;;;17.22;35.83
71149;BME280;59072;42.144;25.200;2023-03-26T18:19:25;99434.41;;;17.15;35.73
71149;BME280;59072;42.144;25.200;2023-03-26T18:21:58;99414.63;;;16.85;36.19
71149;BME280;59072;42.144;25.200;2023-03-26T18:24:29;99424.28;;;16.97;35.00
71149;BME280;59072;42.144;25.200;2023-03-26T18:27:05;99445.88;;;16.71;35.72
71149;BME280;59072;42.144;25.200;2023-03-26T18:29:33;99445.19;;;16.30;36.47
71149;BME280;59072;42.144;25.200;2023-03-26T18:32:00;99443.63;;;16.08;35.70
71149;BME280;59072;42.144;25.200;2023-03-26T18:34:31;99436.63;;;16.12;35.11
71149;BME280;59072;42.144;25.200;2023-03-26T18:39:25;99447.91;;;16.14;35.21
71149;BME280;59072;42.144;25.200;2023-03-26T18:41:51;99449.78;;;15.98;35.85
71149;BME280;59072;42.144;25.200;2023-03-26T18:44:17;99438.50;;;15.81;36.60
71149;BME280;59072;42.144;25.200;2023-03-26T18:46:44;99451.41;;;15.84;37.17
71149;BME280;59072;42.144;25.200;2023-03-26T18:49:11;99447.59;;;15.59;38.65
71149;BME280;59072;42.144;25.200;2023-03-26T18:51:37;99446.78;;;15.69;37.45
71149;BME280;59072;42.144;25.200;2023-03-26T18:54:04;99455.13;;;15.57;38.02
71149;BME280;59072;42.144;25.200;2023-03-26T18:56:40;99448.91;;;15.57;38.02
71149;BME280;59072;42.144;25.200;2023-03-26T18:59:40;99424.44;;;15.38;37.96
71149;BME280;59072;42.144;25.200;2023-03-26T19:02:09;99452.03;;;15.02;38.84
71149;BME280;59072;42.144;25.200;2023-03-26T19:04:36;99438.22;;;14.78;39.81
71149;BME280;59072;42.144;25.200;2023-03-26T19:07:05;99417.56;;;14.74;39.37